createdAt,value
2018-11-28T00:00:15.280Z,58.9
2018-11-28T00:03:15.057Z,58.8
2018-11-28T00:06:15.695Z,59.0
2018-11-28T00:09:15.459Z,59.2
2018-11-28T00:12:15.225Z,59.1
2018-11-28T00:15:14.980Z,59.5
2018-11-28T00:18:15.945Z,59.5
2018-11-28T00:21:15.630Z,59.9
2018-11-28T00:24:15.235Z,59.7
2018-11-28T00:27:15.103Z,59.0
2018-11-28T00:30:15.767Z,59.0
2018-11-28T00:33:15.534Z,59.2
2018-11-28T00:36:15.109Z,59.4
2018-11-28T00:39:15.871Z,59.6
2018-11-28T00:42:15.541Z,59.7
2018-11-28T00:45:15.548Z,60.2
2018-11-28T00:48:14.965Z,60.1
2018-11-28T00:51:15.557Z,60.5
2018-11-28T00:54:15.166Z,60.7
2018-11-28T00:57:15.985Z,60.9
2018-11-28T01:00:15.658Z,61.0
2018-11-28T01:03:15.285Z,61.3
2018-11-28T01:06:14.955Z,61.4
2018-11-28T01:09:15.523Z,61.7
2018-11-28T01:12:15.317Z,61.9
2018-11-28T01:15:15.598Z,62.7
2018-11-28T01:18:15.306Z,62.5
2018-11-28T01:21:15.457Z,62.9
2018-11-28T01:24:15.091Z,63.1
2018-11-28T01:27:15.842Z,63.2
2018-11-28T01:30:15.541Z,63.6
2018-11-28T01:33:15.239Z,64.0
2018-11-28T01:36:14.882Z,64.0
2018-11-28T01:39:15.803Z,63.7
2018-11-28T01:42:15.547Z,64.1
2018-11-28T01:45:15.163Z,64.1
2018-11-28T01:48:15.883Z,64.3
2018-11-28T01:51:15.435Z,64.8
2018-11-28T01:54:15.087Z,64.4
2018-11-28T01:57:15.655Z,64.4
2018-11-28T02:00:15.277Z,64.3
2018-11-28T02:03:15.907Z,64.4
2018-11-28T02:06:15.502Z,64.3
2018-11-28T02:09:15.239Z,64.8
2018-11-28T02:12:14.894Z,64.3
2018-11-28T02:15:15.636Z,64.4
2018-11-28T02:18:15.646Z,64.5
2018-11-28T02:21:15.468Z,64.7
2018-11-28T02:24:15.317Z,64.7
2018-11-28T02:27:15.136Z,64.6
2018-11-28T02:30:15.027Z,64.6
2018-11-28T02:33:15.832Z,64.6
2018-11-28T02:36:15.661Z,64.2
2018-11-28T02:39:15.265Z,63.8
2018-11-28T02:42:14.912Z,63.8
2018-11-28T02:45:15.506Z,63.9
2018-11-28T02:48:15.350Z,63.3
2018-11-28T02:51:15.478Z,63.2
2018-11-28T02:54:15.301Z,63.0
2018-11-28T02:57:14.977Z,62.9
2018-11-28T03:00:15.856Z,62.8
2018-11-28T03:03:15.747Z,62.7
2018-11-28T03:06:15.675Z,62.8
2018-11-28T03:09:15.325Z,63.2
2018-11-28T03:12:15.180Z,63.3
2018-11-28T03:15:15.952Z,63.4
2018-11-28T03:18:15.211Z,63.6
2018-11-28T03:21:15.071Z,63.5
2018-11-28T03:24:15.853Z,63.4
2018-11-28T03:27:15.500Z,63.5
2018-11-28T03:30:15.283Z,63.7
2018-11-28T03:33:15.027Z,63.8
2018-11-28T03:36:15.799Z,64.1
2018-11-28T03:39:15.686Z,64.1
2018-11-28T03:42:15.373Z,64.3
2018-11-28T03:45:15.039Z,64.1
2018-11-28T03:48:15.785Z,64.2
2018-11-28T03:51:15.535Z,64.3
2018-11-28T03:54:15.419Z,64.3
2018-11-28T03:57:15.356Z,64.6
2018-11-28T04:00:15.199Z,64.8
2018-11-28T04:03:15.996Z,65.0
2018-11-28T04:06:15.049Z,65.2
2018-11-28T04:09:15.752Z,65.5
2018-11-28T04:12:15.308Z,65.2
2018-11-28T04:15:15.254Z,65.3
2018-11-28T04:18:15.234Z,65.3
2018-11-28T04:21:15.049Z,65.2
2018-11-28T04:24:15.751Z,65.6
2018-11-28T04:27:15.561Z,65.4
2018-11-28T04:30:15.260Z,64.9
2018-11-28T04:33:15.086Z,65.2
2018-11-28T04:36:15.813Z,64.6
2018-11-28T04:39:15.528Z,64.2
2018-11-28T04:42:15.236Z,64.2
2018-11-28T04:45:15.880Z,64.3
2018-11-28T04:48:15.538Z,64.6
2018-11-28T04:51:15.381Z,64.7
2018-11-28T04:54:15.107Z,64.8
2018-11-28T04:57:15.844Z,65.3
2018-11-28T05:00:15.625Z,65.4
2018-11-28T05:03:15.664Z,65.7
2018-11-28T05:06:15.342Z,65.4
2018-11-28T05:09:14.886Z,65.7
2018-11-28T05:12:15.532Z,65.7
2018-11-28T05:15:15.045Z,65.7
2018-11-28T05:18:15.329Z,65.8
2018-11-28T05:21:15.127Z,65.9
2018-11-28T05:24:15.648Z,66.0
2018-11-28T05:27:15.608Z,65.6
2018-11-28T05:30:15.391Z,65.7
2018-11-28T05:33:15.691Z,65.8
2018-11-28T05:36:15.356Z,66.1
2018-11-28T05:39:15.060Z,66.1
2018-11-28T05:42:15.830Z,66.0
2018-11-28T05:45:15.588Z,66.2
2018-11-28T05:48:15.427Z,66.5
2018-11-28T05:51:15.154Z,66.5
2018-11-28T05:54:15.811Z,66.4
2018-11-28T05:57:15.710Z,66.5
2018-11-28T06:00:15.649Z,66.3
2018-11-28T06:03:15.713Z,66.2
2018-11-28T06:06:15.246Z,66.3
2018-11-28T06:09:15.095Z,66.2
2018-11-28T06:12:15.012Z,66.1
2018-11-28T06:15:15.891Z,66.1
2018-11-28T06:18:15.888Z,66.3
2018-11-28T06:21:15.607Z,66.4
2018-11-28T06:24:15.553Z,66.5
2018-11-28T06:27:15.461Z,66.7
2018-11-28T06:30:15.193Z,66.8
2018-11-28T06:33:15.049Z,66.9
2018-11-28T06:36:14.992Z,67.0
2018-11-28T06:39:15.976Z,67.0
2018-11-28T06:42:15.890Z,66.8
2018-11-28T06:45:15.769Z,66.8
2018-11-28T06:48:15.597Z,66.8
2018-11-28T06:51:15.443Z,66.8
2018-11-28T06:54:15.834Z,66.9
2018-11-28T06:57:15.632Z,66.8
2018-11-28T07:00:15.667Z,66.7
2018-11-28T07:03:15.654Z,66.6
2018-11-28T07:06:15.675Z,66.6
2018-11-28T07:09:15.538Z,66.6
2018-11-28T07:12:15.358Z,66.5
2018-11-28T07:15:15.576Z,66.6
2018-11-28T07:18:15.534Z,66.6
2018-11-28T07:21:15.154Z,66.7
2018-11-28T07:24:15.017Z,66.7
2018-11-28T07:27:15.705Z,66.9
2018-11-28T07:30:15.309Z,66.5
2018-11-28T07:33:15.246Z,66.4
2018-11-28T07:36:15.124Z,66.3
2018-11-28T07:39:15.219Z,66.2
2018-11-28T07:42:15.041Z,66.0
2018-11-28T07:45:15.689Z,65.9
2018-11-28T07:48:15.597Z,65.5
2018-11-28T07:51:15.348Z,65.5
2018-11-28T07:54:15.212Z,65.0
2018-11-28T07:57:14.988Z,65.0
2018-11-28T08:00:15.905Z,64.8
2018-11-28T08:03:15.777Z,64.3
2018-11-28T08:06:15.599Z,63.9
2018-11-28T08:09:15.428Z,63.6
2018-11-28T08:12:15.323Z,63.2
2018-11-28T08:15:15.391Z,63.0
2018-11-28T08:18:15.220Z,62.7
2018-11-28T08:21:15.971Z,62.7
2018-11-28T08:24:15.967Z,61.9
2018-11-28T08:27:16.065Z,61.8
2018-11-28T08:30:15.857Z,61.5
2018-11-28T08:33:15.333Z,61.2
2018-11-28T08:36:15.236Z,61.2
2018-11-28T08:39:14.996Z,59.8
2018-11-28T08:42:15.679Z,60.6
2018-11-28T08:45:15.623Z,61.1
2018-11-28T08:48:15.406Z,60.6
2018-11-28T08:51:16.142Z,60.3
2018-11-28T08:54:15.211Z,59.2
2018-11-28T08:57:14.898Z,60.3
2018-11-28T09:00:15.820Z,60.0
2018-11-28T09:03:15.095Z,60.3
2018-11-28T09:06:15.912Z,60.6
2018-11-28T09:09:15.887Z,60.2
2018-11-28T09:12:15.912Z,60.0
2018-11-28T09:15:15.684Z,59.2
2018-11-28T09:18:15.123Z,59.9
2018-11-28T09:21:15.928Z,59.9
2018-11-28T09:24:15.912Z,59.7
2018-11-28T09:27:15.746Z,58.8
2018-11-28T09:30:15.478Z,58.9
2018-11-28T09:33:15.174Z,59.1
2018-11-28T09:36:15.128Z,58.6
2018-11-28T09:39:15.497Z,58.7
2018-11-28T09:42:15.314Z,58.2
2018-11-28T09:45:15.207Z,57.2
2018-11-28T09:48:15.373Z,57.4
2018-11-28T09:51:15.305Z,57.5
2018-11-28T09:54:15.393Z,57.2
2018-11-28T09:57:15.124Z,57.2
2018-11-28T10:00:15.970Z,57.2
2018-11-28T10:03:14.916Z,57.4
2018-11-28T10:06:15.716Z,57.5
2018-11-28T10:09:15.882Z,56.9
2018-11-28T10:12:15.704Z,56.4
2018-11-28T10:15:15.539Z,56.5
2018-11-28T10:18:15.307Z,56.5
2018-11-28T10:21:15.224Z,56.2
2018-11-28T10:24:15.122Z,56.2
2018-11-28T10:27:15.848Z,56.0
2018-11-28T10:30:15.937Z,55.8
2018-11-28T10:33:15.351Z,54.8
2018-11-28T10:36:15.321Z,54.7
2018-11-28T10:39:15.193Z,54.1
2018-11-28T10:42:15.008Z,54.8
2018-11-28T10:45:15.820Z,54.4
2018-11-28T10:48:15.996Z,53.9
2018-11-28T10:51:15.884Z,53.4
2018-11-28T10:54:15.804Z,53.1
2018-11-28T10:57:15.777Z,51.4
2018-11-28T11:00:15.837Z,52.2
2018-11-28T11:03:15.221Z,52.3
2018-11-28T11:06:15.167Z,53.1
2018-11-28T11:09:15.342Z,52.5
2018-11-28T11:12:15.578Z,52.7
2018-11-28T11:15:16.004Z,53.0
2018-11-28T11:18:15.826Z,52.6
2018-11-28T11:21:15.645Z,53.2
2018-11-28T11:24:15.501Z,53.1
2018-11-28T11:27:15.356Z,53.5
2018-11-28T11:30:15.272Z,53.8
2018-11-28T11:33:15.035Z,53.9
2018-11-28T11:36:15.951Z,53.8
2018-11-28T11:39:15.891Z,53.9
2018-11-28T11:42:15.635Z,54.5
2018-11-28T11:45:15.446Z,55.0
2018-11-28T11:48:15.164Z,55.3
2018-11-28T11:51:17.257Z,55.7
2018-11-28T11:54:15.343Z,56.1
2018-11-28T11:57:15.786Z,56.1
2018-11-28T12:00:15.605Z,55.9
2018-11-28T12:03:15.962Z,56.0
2018-11-28T12:06:15.689Z,55.9
2018-11-28T12:09:15.670Z,56.0
2018-11-28T12:12:15.475Z,56.1
2018-11-28T12:15:15.157Z,56.6
2018-11-28T12:18:15.220Z,56.9
2018-11-28T12:21:15.222Z,56.8
2018-11-28T12:24:15.090Z,56.3
2018-11-28T12:27:15.746Z,56.3
2018-11-28T12:30:15.495Z,56.5
2018-11-28T12:33:15.258Z,56.9
2018-11-28T12:36:15.131Z,56.9
2018-11-28T12:39:15.872Z,56.8
2018-11-28T12:42:15.773Z,57.0
2018-11-28T12:45:15.623Z,57.0
2018-11-28T12:48:15.424Z,56.7
2018-11-28T12:51:15.118Z,56.4
2018-11-28T12:54:14.969Z,56.1
2018-11-28T12:57:15.613Z,56.1
2018-11-28T13:00:15.481Z,56.2
2018-11-28T13:03:15.920Z,56.6
2018-11-28T13:06:16.036Z,56.3
2018-11-28T13:09:14.973Z,56.3
2018-11-28T13:12:15.759Z,56.5
2018-11-28T13:15:15.505Z,56.5
2018-11-28T13:18:15.727Z,57.0
2018-11-28T13:21:15.499Z,57.3
2018-11-28T13:24:15.489Z,57.9
2018-11-28T13:27:15.320Z,58.4
2018-11-28T13:30:15.077Z,58.2
2018-11-28T13:33:15.059Z,58.4
2018-11-28T13:36:14.998Z,58.3
2018-11-28T13:39:15.787Z,58.9
2018-11-28T13:42:15.559Z,58.7
2018-11-28T13:45:15.324Z,58.7
2018-11-28T13:48:15.967Z,59.0
2018-11-28T13:51:15.672Z,59.0
2018-11-28T13:54:21.314Z,59.0
2018-11-28T13:57:15.448Z,59.3
2018-11-28T14:00:15.428Z,59.4
2018-11-28T14:03:15.377Z,59.6
2018-11-28T14:06:15.373Z,60.3
2018-11-28T14:09:15.161Z,59.8
2018-11-28T14:12:16.014Z,59.7
2018-11-28T14:15:15.670Z,59.9
2018-11-28T14:18:15.730Z,59.9
2018-11-28T14:21:15.503Z,60.0
2018-11-28T14:24:15.543Z,59.9
2018-11-28T14:27:15.296Z,59.8
2018-11-28T14:30:15.213Z,59.6
2018-11-28T14:33:15.957Z,59.3
2018-11-28T14:36:15.762Z,59.3
2018-11-28T14:39:15.880Z,59.1
2018-11-28T14:42:15.635Z,59.4
2018-11-28T14:45:15.386Z,59.3
2018-11-28T14:48:15.281Z,59.3
2018-11-28T14:51:15.148Z,59.6
2018-11-28T14:54:15.082Z,59.7
2018-11-28T14:57:15.848Z,59.7
2018-11-28T15:00:15.610Z,59.9
2018-11-28T15:03:15.638Z,60.0
2018-11-28T15:06:15.544Z,60.2
2018-11-28T15:09:15.870Z,60.6
2018-11-28T15:12:15.866Z,61.0
2018-11-28T15:15:15.695Z,61.2
2018-11-28T15:18:15.731Z,61.5
2018-11-28T15:21:15.650Z,61.6
2018-11-28T15:24:15.416Z,61.8
2018-11-28T15:27:15.132Z,61.9
2018-11-28T15:30:14.944Z,61.7
2018-11-28T15:33:15.631Z,61.8
2018-11-28T15:36:15.582Z,61.8
2018-11-28T15:39:15.589Z,61.8
2018-11-28T15:42:15.672Z,61.8
2018-11-28T15:45:15.432Z,62.1
2018-11-28T15:48:15.066Z,62.1
2018-11-28T15:51:15.970Z,62.1
2018-11-28T15:54:15.640Z,62.2
2018-11-28T15:57:15.615Z,62.4
2018-11-28T16:00:15.470Z,62.4
2018-11-28T16:03:15.104Z,62.6
2018-11-28T16:06:15.225Z,62.6
2018-11-28T16:09:15.771Z,62.6
2018-11-28T16:12:15.629Z,62.4
2018-11-28T16:15:20.798Z,62.5
2018-11-28T16:18:15.744Z,62.4
2018-11-28T16:21:15.900Z,62.3
2018-11-28T16:24:15.791Z,62.7
2018-11-28T16:27:15.478Z,63.0
2018-11-28T16:30:15.347Z,64.1
2018-11-28T16:33:15.281Z,64.4
2018-11-28T16:36:15.623Z,65.0
2018-11-28T16:39:15.406Z,64.7
2018-11-28T16:42:15.189Z,65.3
2018-11-28T16:45:15.011Z,66.0
2018-11-28T16:48:15.193Z,66.1
2018-11-28T16:51:15.570Z,65.7
2018-11-28T16:54:15.320Z,66.4
2018-11-28T16:57:15.160Z,66.3
2018-11-28T17:00:15.340Z,65.6
2018-11-28T17:03:15.607Z,65.8
2018-11-28T17:06:15.360Z,65.9
2018-11-28T17:09:15.517Z,65.8
2018-11-28T17:12:15.899Z,65.6
2018-11-28T17:15:16.775Z,65.5
2018-11-28T17:18:14.981Z,65.4
2018-11-28T17:21:14.969Z,65.4
2018-11-28T17:24:15.963Z,65.6
2018-11-28T17:27:15.875Z,65.7
2018-11-28T17:30:18.850Z,66.2
2018-11-28T17:33:15.406Z,65.1
2018-11-28T17:36:15.293Z,65.1
2018-11-28T17:39:15.219Z,65.2
2018-11-28T17:42:15.417Z,65.3
2018-11-28T17:45:15.517Z,65.2
2018-11-28T17:48:15.520Z,65.1
2018-11-28T17:51:15.446Z,65.0
2018-11-28T17:54:15.789Z,65.1
2018-11-28T17:57:15.890Z,64.7
2018-11-28T18:00:15.706Z,64.9
2018-11-28T18:03:15.980Z,64.9
2018-11-28T18:06:15.531Z,65.0
2018-11-28T18:09:15.340Z,64.8
2018-11-28T18:12:15.161Z,64.9
2018-11-28T18:15:14.935Z,65.0
2018-11-28T18:18:15.913Z,65.0
2018-11-28T18:21:15.924Z,65.3
2018-11-28T18:24:15.743Z,65.1
2018-11-28T18:27:15.825Z,65.5
2018-11-28T18:30:15.105Z,65.8
2018-11-28T18:33:15.268Z,66.7
2018-11-28T18:36:15.484Z,66.6
2018-11-28T18:39:15.407Z,66.4
2018-11-28T18:42:15.590Z,66.5
2018-11-28T18:45:15.937Z,66.5
2018-11-28T18:48:15.704Z,66.8
2018-11-28T18:51:15.814Z,66.8
2018-11-28T18:54:15.853Z,67.1
2018-11-28T18:57:15.805Z,67.3
2018-11-28T19:00:15.030Z,68.7
2018-11-28T19:03:15.151Z,67.6
2018-11-28T19:06:15.456Z,67.3
2018-11-28T19:09:15.327Z,67.5
2018-11-28T19:12:15.044Z,68.0
2018-11-28T19:15:16.152Z,69.8
2018-11-28T19:18:15.753Z,68.6
2018-11-28T19:21:15.658Z,67.2
2018-11-28T19:24:15.900Z,68.6
2018-11-28T19:27:15.662Z,69.3
2018-11-28T19:30:14.963Z,70.2
2018-11-28T19:33:15.944Z,69.3
2018-11-28T19:36:15.840Z,70.0
2018-11-28T19:39:21.153Z,70.7
2018-11-28T19:42:15.548Z,70.0
2018-11-28T19:45:15.349Z,69.7
2018-11-28T19:48:15.874Z,72.6
2018-11-28T19:51:15.101Z,73.7
2018-11-28T19:54:15.566Z,73.0
2018-11-28T19:57:15.842Z,72.1
2018-11-28T20:00:15.870Z,70.9
2018-11-28T20:03:15.047Z,71.6
2018-11-28T20:06:15.110Z,71.8
2018-11-28T20:09:15.045Z,71.1
2018-11-28T20:12:15.835Z,70.9
2018-11-28T20:15:15.225Z,71.2
2018-11-28T20:18:15.423Z,72.1
2018-11-28T20:21:15.547Z,72.7
2018-11-28T20:24:15.486Z,72.3
2018-11-28T20:27:15.518Z,72.2
2018-11-28T20:30:15.370Z,72.9
2018-11-28T20:33:15.163Z,75.8
2018-11-28T20:36:15.020Z,75.7
2018-11-28T20:39:15.071Z,75.6
2018-11-28T20:42:15.906Z,74.9
2018-11-28T20:45:16.018Z,75.7
2018-11-28T20:48:15.066Z,73.0
2018-11-28T20:51:15.934Z,73.1
2018-11-28T20:54:15.054Z,73.7
2018-11-28T20:57:17.347Z,73.4
2018-11-28T21:00:15.423Z,72.7
2018-11-28T21:03:15.434Z,72.9
2018-11-28T21:06:15.361Z,73.0
2018-11-28T21:09:15.267Z,73.4
2018-11-28T21:12:15.329Z,72.9
2018-11-28T21:15:15.214Z,72.9
2018-11-28T21:18:15.251Z,73.5
2018-11-28T21:21:15.161Z,72.9
2018-11-28T21:24:15.181Z,74.2
2018-11-28T21:27:15.373Z,74.1
2018-11-28T21:30:14.953Z,74.4
2018-11-28T21:33:15.035Z,73.6
2018-11-28T21:36:15.956Z,73.7
2018-11-28T21:39:15.903Z,73.7
2018-11-28T21:42:15.774Z,73.8
2018-11-28T21:45:15.729Z,74.3
2018-11-28T21:48:15.838Z,74.4
2018-11-28T21:51:16.122Z,75.4
2018-11-28T21:54:15.011Z,74.4
2018-11-28T21:57:15.761Z,74.3
2018-11-28T22:00:15.318Z,73.9
2018-11-28T22:03:15.622Z,74.3
2018-11-28T22:06:15.487Z,74.5
2018-11-28T22:09:15.435Z,73.9
2018-11-28T22:12:15.881Z,74.6
2018-11-28T22:15:15.937Z,74.4
2018-11-28T22:18:15.109Z,74.1
2018-11-28T22:21:15.549Z,74.5
2018-11-28T22:24:15.893Z,74.1
2018-11-28T22:27:15.005Z,74.4
2018-11-28T22:30:15.292Z,74.3
2018-11-28T22:33:14.973Z,74.1
2018-11-28T22:36:15.013Z,74.5
2018-11-28T22:39:15.735Z,74.2
2018-11-28T22:42:15.915Z,73.9
2018-11-28T22:45:16.608Z,74.0
2018-11-28T22:48:17.080Z,74.2
2018-11-28T22:51:15.885Z,73.8
2018-11-28T22:54:15.409Z,73.9
2018-11-28T22:57:24.282Z,74.1
2018-11-28T23:00:16.707Z,74.2
2018-11-28T23:03:23.646Z,74.4
2018-11-28T23:06:15.740Z,74.3
2018-11-28T23:09:15.275Z,74.3
2018-11-28T23:12:15.434Z,74.6
2018-11-28T23:15:15.700Z,74.7
2018-11-28T23:18:15.373Z,74.8
2018-11-28T23:21:16.085Z,74.5
2018-11-28T23:24:20.539Z,74.4
2018-11-28T23:27:15.303Z,74.6
2018-11-28T23:30:15.762Z,74.4
2018-11-28T23:33:16.247Z,74.4
2018-11-28T23:36:15.359Z,74.2
2018-11-28T23:39:15.505Z,74.3
2018-11-28T23:42:15.840Z,74.2
2018-11-28T23:45:15.240Z,74.2
2018-11-28T23:48:15.043Z,74.1
2018-11-28T23:51:15.246Z,74.4
2018-11-28T23:54:15.406Z,74.2
2018-11-28T23:57:15.615Z,74.1
